الصفحة الرئيسية
METAR-TAF:

METAR-TAF

مطار :

مطار الشلف الدولي

الشلف, الجزائر

دائرة عرض: 36-13N, خط طول: 001-20E, ارتفاع: 143 متر

مراقبة الطقس الحالي

تاريخ ووقت الإصدار 54 دقيقة قبل الساعة 01:00UTC
ريح 2 عقدة من الشمال الشرقي
درجة الحرارة 24°درجة مئوية
الرطوبة 47%
ضغط 1018 hPa
الرؤية 10 كم أو أكثر
الغيوم لا تقل 1500 م ولا وجود لمزنة ركامية السحاب الأسود

METAR: DAOI 040100Z 04002KT CAVOK 24/12 Q1018

زمن: 02:54 (01:54 UTC)

توقعات

تاريخ ووقت الإصدار 2ساعات و 54 دقيقة قبل الساعة 23:00UTC
التوقعات صالحة من04 الساعة 00 UTC إلى 04 الساعة 24 UTC
ريح 2 عقدةمن اتجاهات متغيرة
الرؤية 10 كم أو أكثر
الغيوم لا تقل 1500 م ولا وجود لمزنة ركامية السحاب الأسود
أصبح
من 04 الساعة 09 UTC إلى 04 الساعة 12 UTC
ريح 10 عقدة من الشمال/الشمال الشرقي
أصبح
من 04 الساعة 19 UTC إلى 04 الساعة 22 UTC
ريح 2 عقدةمن اتجاهات متغيرة

TAF: DAOI 032300Z 0400/0424 VRB02KT CAVOK BECMG 0409/0412 03010KT BECMG 0419/0422 VRB02KT

أرصاد الطقس والتوقعات من أكثر من 4000 مطار (تقارير الطقس للمطار METAR والتنبؤ بالطقس بالمطارTAF).

المحطات المتاحة هي النقط الصفراء والحمراء على الخريطة.

حرك المؤشر فوق النقطة لمعرفة اسم المحطة.

ثم انقر لمعرفة أرصاد وتوقعات الطقس.

لتغيير الخارطة: اضغط على الأزرار الخضراء مع رمز الصليب الأسود للتكبير. على الزر الأخضر مع شرطة للتصغير، أو على الأسهم الخضراء للخرائط المجاورة.


METAR-TAF: